Swea City, Iowa
Current Conditions -  °F | °C
As of 11:55 PM on Wednesday 22 Oct 2014 (Local Time) from KFRM Reporting Station
Broken Clouds Broken Clouds  
Wind Chill: 55°   Ceiling: 9000
Heat Index: 55°   Visibility: 10mi
Dew Point: 46°   Wind: 16mph
Humidity: 72%   Direction: 170°S
Pressure: 30.02"   Gusts: NA
Location:  43.38°N, 94.31°W
Report Text: KFRM 230455Z AUTO 17014KT 10SM BKN090 BKN110 13/08 A3002 RMK AO1
Loading
Personal Weather Stations






























Interactive Weather Map
Tropical Storm Tracking
New forecast layout! Learn more

10-Day Weather Forecast

Advertisements
Track Severe Weather on mobile